Time;durP1;ratioP1;P1;durP2;ratioP2;P2;SDS_P1;SDS_P2;PMS_P1;PMS_P2;Temp;Humidity;BMP_temperature;BMP_pressure;BME280_temperature;BME280_humidity;BME280_pressure;Samples;Min_cycle;Max_cycle;Signal;HPM_P1;HPM_P2
2022/10/20 00:01:56;;;;;;;11.87;9.13;;;;;;;14.51;63.90;99640.53;5109423;28;20199;-59
2022/10/20 00:04:23;;;;;;;11.63;9.60;;;;;;;14.46;64.42;99632.88;5109543;28;20198;-59
2022/10/20 00:06:49;;;;;;;10.60;9.60;;;;;;;14.52;65.00;99639.63;5109675;28;20206;-59
2022/10/20 00:09:16;;;;;;;13.13;9.70;;;;;;;14.50;65.33;99633.59;5109478;28;20694;-59
2022/10/20 00:11:44;;;;;;;11.10;10.00;;;;;;;14.36;65.84;99612.41;5109518;28;20198;-55
2022/10/20 00:14:11;;;;;;;12.27;9.63;;;;;;;14.46;66.37;99630.28;5109238;28;20625;-59
2022/10/20 00:16:39;;;;;;;10.80;9.23;;;;;;;14.42;67.10;99623.50;5109195;28;20705;-59
2022/10/20 00:19:06;;;;;;;10.23;9.27;;;;;;;14.45;67.86;99615.50;5109514;28;20202;-55
2022/10/20 00:21:33;;;;;;;16.20;10.20;;;;;;;14.44;67.77;99619.06;5109403;28;20198;-55
2022/10/20 00:24:01;;;;;;;13.50;10.83;;;;;;;14.38;68.07;99605.38;5109401;28;20194;-58
2022/10/20 00:26:29;;;;;;;15.87;11.20;;;;;;;14.46;69.10;99624.19;5109293;28;20207;-59
2022/10/20 00:28:57;;;;;;;12.27;10.80;;;;;;;14.48;69.62;99618.00;5109940;28;20659;-59
2022/10/20 00:31:25;;;;;;;13.97;10.80;;;;;;;14.52;70.51;99613.50;5113290;27;20275;-55
2022/10/20 00:33:53;;;;;;;13.37;10.03;;;;;;;14.56;70.94;99609.00;5113309;28;20295;-59
2022/10/20 00:36:22;;;;;;;15.63;11.77;;;;;;;14.66;71.58;99620.75;5112920;28;20194;-54
2022/10/20 00:38:49;;;;;;;12.53;11.20;;;;;;;14.60;71.50;99600.09;5113145;28;20599;-60
2022/10/20 00:41:19;;;;;;;15.60;11.77;;;;;;;14.73;72.12;99614.31;5112958;28;20194;-60
2022/10/20 00:43:49;;;;;;;21.20;11.73;;;;;;;14.75;72.91;99605.50;5113488;28;20658;-60
2022/10/20 00:46:19;;;;;;;15.27;12.00;;;;;;;14.81;73.48;99609.59;5113051;28;20225;-59
2022/10/20 00:48:49;;;;;;;14.07;12.40;;;;;;;14.81;73.30;99601.75;5113306;28;20198;-55
2022/10/20 00:51:22;;;;;;;15.97;11.70;;;;;;;14.78;73.83;99592.31;5112745;28;20662;-55
2022/10/20 00:53:52;;;;;;;14.27;12.07;;;;;;;14.97;74.39;99608.00;5112742;28;20230;-55
2022/10/20 00:56:19;;;;;;;18.53;12.80;;;;;;;14.99;74.54;99606.19;5112558;28;20202;-54
2022/10/20 00:58:46;;;;;;;14.80;12.50;;;;;;;15.09;75.15;99602.22;5113039;28;20717;-55
2022/10/20 01:01:14;;;;;;;14.70;13.17;;;;;;;15.16;74.91;99610.63;5102175;28;20202;-55
2022/10/20 01:03:45;;;;;;;17.17;12.33;;;;;;;15.18;74.94;99614.03;5092241;28;20282;-58
2022/10/20 01:06:13;;;;;;;17.23;12.97;;;;;;;15.22;74.99;99605.13;5091984;28;20286;-54
2022/10/20 01:08:42;;;;;;;16.67;13.23;;;;;;;15.27;74.83;99616.19;5092024;28;20237;-54
2022/10/20 01:11:18;;;;;;;14.83;13.33;;;;;;;15.28;75.31;99610.06;5092214;28;20195;-59
2022/10/20 01:14:00;;;;;;;14.20;12.73;;;;;;;15.35;75.84;99600.16;5092183;28;20223;-59
2022/10/20 01:16:38;;;;;;;16.17;12.57;;;;;;;15.44;75.84;99602.34;5092033;28;20199;-55
2022/10/20 01:19:20;;;;;;;16.53;12.93;;;;;;;15.43;75.55;99598.88;5091940;28;20683;-55
2022/10/20 01:22:07;;;;;;;14.30;12.90;;;;;;;15.46;76.40;99608.38;5092020;28;20195;-59
2022/10/20 01:24:55;;;;;;;15.50;14.03;;;;;;;15.48;76.35;99609.97;5091829;28;20198;-60
2022/10/20 01:27:29;;;;;;;16.77;13.60;;;;;;;15.48;77.13;99611.72;5091578;28;20218;-60
2022/10/20 01:30:06;;;;;;;17.07;14.73;;;;;;;15.54;77.24;99614.06;5092005;28;20199;-59
2022/10/20 01:32:43;;;;;;;24.03;15.00;;;;;;;15.58;77.51;99613.88;5091761;28;20675;-56
2022/10/20 01:35:21;;;;;;;15.33;13.87;;;;;;;15.63;78.08;99618.03;5091772;28;20670;-54
2022/10/20 01:37:53;;;;;;;24.00;15.47;;;;;;;15.63;78.59;99615.44;5091560;28;20199;-54
2022/10/20 01:40:27;;;;;;;21.50;14.60;;;;;;;15.65;78.49;99622.28;5091649;28;20230;-59
2022/10/20 01:43:00;;;;;;;18.07;14.33;;;;;;;15.60;79.04;99616.41;5091492;28;20203;-59
2022/10/20 01:45:30;;;;;;;16.60;14.30;;;;;;;15.60;78.84;99626.88;5091418;28;20582;-60
2022/10/20 01:48:00;;;;;;;19.33;14.40;;;;;;;15.58;78.82;99624.34;5091378;28;20195;-60
2022/10/20 01:50:27;;;;;;;18.20;14.70;;;;;;;15.56;79.99;99615.72;5091088;28;20202;-55
2022/10/20 01:52:56;;;;;;;18.23;15.13;;;;;;;15.57;80.43;99616.59;5091251;28;20608;-55
2022/10/20 01:55:23;;;;;;;17.77;15.57;;;;;;;15.56;80.98;99628.81;5091278;28;20675;-55
2022/10/20 01:58:10;;;;;;;27.03;17.17;;;;;;;15.57;81.24;99634.91;5091400;28;20671;-55
2022/10/20 02:00:39;;;;;;;19.30;16.77;;;;;;;15.60;81.40;99629.50;5091100;28;20767;-55
2022/10/20 02:03:21;;;;;;;20.83;16.67;;;;;;;15.60;81.90;99629.50;5091313;28;20605;-59
2022/10/20 02:05:59;;;;;;;20.10;16.63;;;;;;;15.69;81.16;99629.06;5091151;28;20202;-60
2022/10/20 02:08:34;;;;;;;19.57;16.43;;;;;;;15.61;81.30;99623.34;5090890;28;20203;-60
2022/10/20 02:11:03;;;;;;;18.50;16.13;;;;;;;15.58;82.06;99631.34;5090826;28;20203;-59
2022/10/20 02:13:35;;;;;;;22.47;17.07;;;;;;;15.63;81.87;99637.22;5090445;28;20219;-60
2022/10/20 02:16:08;;;;;;;21.80;16.87;;;;;;;15.66;82.33;99629.22;5091043;28;20590;-60
2022/10/20 02:18:40;;;;;;;18.83;16.57;;;;;;;15.66;82.72;99637.06;5090883;28;20210;-59
2022/10/20 02:21:07;;;;;;;20.87;17.30;;;;;;;15.57;82.61;99632.28;5090526;28;20191;-58
2022/10/20 02:23:38;;;;;;;23.80;18.27;;;;;;;15.58;83.63;99644.41;5090651;28;20203;-58
2022/10/20 02:26:07;;;;;;;25.27;17.87;;;;;;;15.54;83.48;99651.59;5090719;28;20199;-59
2022/10/20 02:28:39;;;;;;;22.87;18.37;;;;;;;15.53;84.20;99642.00;5090421;28;20203;-59
2022/10/20 02:31:06;;;;;;;29.70;18.03;;;;;;;15.53;84.39;99643.75;5090729;28;20199;-59
2022/10/20 02:33:34;;;;;;;22.60;18.43;;;;;;;15.53;85.07;99651.63;5090486;28;20713;-59
2022/10/20 02:36:05;;;;;;;21.80;17.67;;;;;;;15.52;85.15;99658.63;5090494;28;20641;-59
2022/10/20 02:38:31;;;;;;;21.67;18.63;;;;;;;15.49;85.73;99653.53;5090692;28;20673;-59
2022/10/20 02:40:58;;;;;;;20.17;18.10;;;;;;;15.45;86.05;99651.13;5090428;28;20207;-59
2022/10/20 02:43:25;;;;;;;22.37;17.60;;;;;;;15.39;86.17;99657.47;5090302;28;20206;-57
2022/10/20 02:45:53;;;;;;;23.60;18.70;;;;;;;15.31;87.01;99649.16;5090319;28;20195;-58
2022/10/20 02:48:20;;;;;;;26.50;18.47;;;;;;;15.29;87.15;99653.59;5090142;28;20210;-59
2022/10/20 02:50:47;;;;;;;23.97;19.93;;;;;;;15.29;87.35;99657.97;5089906;28;20195;-59
2022/10/20 02:53:13;;;;;;;20.20;18.10;;;;;;;15.29;87.35;99663.22;5089454;28;20234;-59
2022/10/20 02:55:42;;;;;;;26.30;19.20;;;;;;;15.24;87.77;99672.09;5090233;28;20689;-55
2022/10/20 02:58:09;;;;;;;20.77;18.30;;;;;;;15.25;87.73;99667.72;5090032;28;20191;-60
2022/10/20 03:00:36;;;;;;;25.33;19.07;;;;;;;15.27;88.01;99671.13;5090087;28;20581;-59
2022/10/20 03:03:04;;;;;;;23.47;18.97;;;;;;;15.26;88.32;99677.25;5089853;28;20232;-59
2022/10/20 03:05:31;;;;;;;22.23;18.47;;;;;;;15.24;88.48;99682.56;5089853;28;20207;-59
2022/10/20 03:07:58;;;;;;;25.37;19.27;;;;;;;15.27;88.67;99687.66;5089894;28;20203;-58
2022/10/20 03:10:24;;;;;;;23.53;18.93;;;;;;;15.31;88.30;99691.00;5090026;28;20199;-59
2022/10/20 03:12:51;;;;;;;25.83;20.77;;;;;;;15.21;89.61;99692.31;5089896;28;20611;-60
2022/10/20 03:15:18;;;;;;;22.83;18.23;;;;;;;15.23;88.95;99695.72;5089861;28;20226;-59
2022/10/20 03:17:45;;;;;;;22.10;19.70;;;;;;;15.22;89.29;99688.78;5087817;28;20210;-59
2022/10/20 03:20:13;;;;;;;24.20;19.70;;;;;;;15.22;89.44;99694.03;5088683;28;20199;-55
2022/10/20 03:22:40;;;;;;;24.17;19.97;;;;;;;15.22;89.21;99686.19;5089577;28;20203;-54
2022/10/20 03:25:07;;;;;;;21.10;18.97;;;;;;;15.29;89.31;99692.81;5089415;28;20554;-55
2022/10/20 03:27:34;;;;;;;23.50;19.20;;;;;;;15.30;90.13;99694.53;5089657;28;20592;-54
2022/10/20 03:30:01;;;;;;;23.47;19.40;;;;;;;15.18;89.13;99680.22;5089539;28;20187;-54
2022/10/20 03:32:28;;;;;;;21.73;19.10;;;;;;;15.37;91.55;99700.31;5089061;28;20206;-55
2022/10/20 03:34:55;;;;;;;23.70;21.10;;;;;;;15.40;89.76;99711.50;5089673;28;20690;-55
2022/10/20 03:37:23;;;;;;;23.53;19.23;;;;;;;15.44;90.01;99715.69;5089287;28;20199;-54
2022/10/20 03:39:50;;;;;;;22.43;19.67;;;;;;;15.22;88.78;99689.66;5089347;28;20191;-59
2022/10/20 03:42:17;;;;;;;22.00;19.70;;;;;;;15.42;89.21;99724.50;5089530;28;20225;-58
2022/10/20 03:44:44;;;;;;;28.70;21.90;;;;;;;15.42;89.03;99722.75;5089215;28;20199;-58
2022/10/20 03:47:12;;;;;;;22.80;19.50;;;;;;;15.46;89.45;99723.47;5089124;28;20203;-54
2022/10/20 03:49:39;;;;;;;23.90;20.27;;;;;;;15.37;89.41;99718.63;5088043;28;20223;-54
2022/10/20 03:52:06;;;;;;;29.57;20.33;;;;;;;15.33;89.42;99717.09;5089840;28;20238;-54
2022/10/20 03:54:35;;;;;;;24.50;20.70;;;;;;;15.38;89.60;99733.41;5088779;28;20226;-54
2022/10/20 03:57:02;;;;;;;27.63;21.43;;;;;;;15.26;90.23;99726.94;5088146;28;20195;-54
2022/10/20 03:59:29;;;;;;;22.80;20.20;;;;;;;15.23;90.58;99732.34;5087022;28;20203;-54
2022/10/20 04:01:56;;;;;;;24.17;19.63;;;;;;;15.27;89.82;99737.34;5085299;28;20191;-54
2022/10/20 04:04:23;;;;;;;27.00;20.00;;;;;;;15.14;90.13;99724.88;5081362;28;20682;-54
2022/10/20 04:06:50;;;;;;;22.17;18.50;;;;;;;15.19;90.12;99747.31;5088358;28;20206;-54
2022/10/20 04:09:16;;;;;;;22.17;19.07;;;;;;;15.15;90.31;99737.88;5084742;28;20205;-54
2022/10/20 04:11:44;;;;;;;27.40;22.57;;;;;;;15.15;90.18;99735.28;5090134;28;20199;-54
2022/10/20 04:14:11;;;;;;;26.93;19.90;;;;;;;15.12;90.46;99730.16;5087837;28;20219;-54
2022/10/20 04:16:38;;;;;;;21.83;18.77;;;;;;;15.11;90.32;99733.72;5091595;28;20205;-54
2022/10/20 04:19:05;;;;;;;27.07;18.80;;;;;;;15.11;90.08;99733.72;5091101;28;20206;-54
2022/10/20 04:21:32;;;;;;;27.27;19.23;;;;;;;15.09;89.93;99735.56;5092227;28;20191;-55
2022/10/20 04:23:59;;;;;;;20.83;18.63;;;;;;;15.07;89.65;99741.75;5093363;28;20554;-54
2022/10/20 04:26:25;;;;;;;25.27;19.37;;;;;;;14.94;89.90;99725.75;5092455;28;20199;-54
2022/10/20 04:28:56;;;;;;;21.63;18.13;;;;;;;15.05;90.09;99746.19;5091971;28;20203;-54
2022/10/20 04:31:23;;;;;;;21.07;18.57;;;;;;;15.03;90.33;99733.19;5090811;28;20198;-55
2022/10/20 04:33:49;;;;;;;24.63;18.53;;;;;;;15.05;89.87;99749.66;5092647;28;20697;-54
2022/10/20 04:36:16;;;;;;;20.50;18.40;;;;;;;15.15;88.94;99750.94;5092633;28;20675;-55
2022/10/20 04:38:43;;;;;;;20.43;18.13;;;;;;;15.14;87.98;99744.03;5092614;28;20199;-54
2022/10/20 04:41:11;;;;;;;20.07;17.90;;;;;;;15.12;88.48;99758.09;5092295;28;20203;-54
2022/10/20 04:43:37;;;;;;;19.83;17.73;;;;;;;15.11;88.26;99759.88;5092445;28;20260;-55
2022/10/20 04:46:06;;;;;;;21.60;17.50;;;;;;;15.13;87.23;99762.38;5070793;28;20220;-56
2022/10/20 04:48:33;;;;;;;21.07;17.03;;;;;;;15.16;87.13;99755.28;5071709;28;20219;-60
2022/10/20 04:51:01;;;;;;;20.30;16.90;;;;;;;15.08;86.21;99744.31;5070188;28;20672;-59
2022/10/20 04:53:28;;;;;;;25.07;17.27;;;;;;;15.19;85.90;99773.44;5071585;28;20224;-60
2022/10/20 04:55:56;;;;;;;21.47;16.73;;;;;;;15.21;85.78;99782.09;5086206;28;20253;-58
2022/10/20 04:58:23;;;;;;;18.70;16.73;;;;;;;15.27;85.02;99780.94;5092008;28;20195;-60
2022/10/20 05:00:49;;;;;;;17.87;15.73;;;;;;;15.39;83.69;99780.41;5092473;28;20213;-59
2022/10/20 05:03:18;;;;;;;16.67;14.90;;;;;;;15.38;83.68;99777.84;5092269;28;20667;-59
2022/10/20 05:05:45;;;;;;;21.63;15.00;;;;;;;15.46;82.52;99786.25;5092276;28;20199;-59
2022/10/20 05:08:12;;;;;;;20.87;15.80;;;;;;;15.61;81.74;99801.25;5091852;28;20200;-60
2022/10/20 05:10:39;;;;;;;17.33;15.17;;;;;;;15.86;80.30;99801.00;5092305;28;20587;-56
2022/10/20 05:13:06;;;;;;;18.93;14.53;;;;;;;16.15;78.34;99791.78;5092024;28;20210;-55
2022/10/20 05:15:33;;;;;;;19.90;14.77;;;;;;;16.87;75.23;99802.28;5091415;28;20627;-54
2022/10/20 05:17:59;;;;;;;24.23;14.13;;;;;;;17.79;69.17;99820.25;5091951;28;20199;-55
2022/10/20 05:20:28;;;;;;;16.53;14.73;;;;;;;18.40;65.43;99825.63;5092153;28;20198;-55
2022/10/20 05:22:55;;;;;;;14.70;12.97;;;;;;;18.59;63.71;99824.63;5091873;28;20206;-55
2022/10/20 05:25:22;;;;;;;16.00;13.80;;;;;;;19.18;62.20;99843.09;5091969;28;20668;-54
2022/10/20 05:27:48;;;;;;;17.90;13.02;;;;;;;19.82;58.61;99841.00;5091981;28;20585;-56
2022/10/20 05:30:15;;;;;;;15.35;13.63;;;;;;;21.04;54.83;99855.13;5081604;28;20228;-55
2022/10/20 05:32:42;;;;;;;14.85;13.45;;;;;;;22.13;51.04;99849.38;5096507;28;20734;-54
2022/10/20 05:35:09;;;;;;;14.73;13.30;;;;;;;23.10;47.38;99849.34;5111206;28;20222;-59
2022/10/20 05:37:37;;;;;;;15.27;12.70;;;;;;;24.16;44.58;99856.97;5110193;28;20198;-60
2022/10/20 05:40:06;;;;;;;16.52;12.75;;;;;;;24.04;43.78;99860.59;5112023;28;20590;-60
2022/10/20 05:42:32;;;;;;;16.45;12.77;;;;;;;24.58;42.71;99871.31;5111665;28;20195;-60
2022/10/20 05:44:59;;;;;;;12.20;11.27;;;;;;;25.13;41.31;99881.88;5112068;27;20586;-60
2022/10/20 05:47:26;;;;;;;15.10;11.70;;;;;;;25.91;39.82;99879.63;5111876;28;20190;-60
2022/10/20 05:49:53;;;;;;;13.13;11.93;;;;;;;25.88;39.40;99890.50;5111765;28;20202;-60
2022/10/20 05:52:20;;;;;;;15.07;12.57;;;;;;;25.67;39.24;99887.03;5111499;28;20620;-60
2022/10/20 05:54:48;;;;;;;14.02;11.25;;;;;;;26.33;38.27;99887.50;5111667;28;20222;-59
2022/10/20 05:57:15;;;;;;;13.07;11.90;;;;;;;27.34;36.45;99904.06;5111592;28;20203;-55
2022/10/20 05:59:42;;;;;;;14.38;12.88;;;;;;;28.25;34.37;99899.94;5111471;28;20195;-55
2022/10/20 06:02:10;;;;;;;25.17;12.98;;;;;;;28.90;33.65;99906.88;5111534;28;20625;-55
2022/10/20 06:04:37;;;;;;;25.10;12.15;;;;;;;28.83;33.15;99916.50;5111090;28;20194;-55
2022/10/20 06:07:05;;;;;;;14.27;11.88;;;;;;;28.56;33.44;99913.81;5111561;28;20190;-55
2022/10/20 06:09:32;;;;;;;12.98;11.13;;;;;;;29.38;32.31;99926.25;5111362;28;20267;-56
2022/10/20 06:12:00;;;;;;;14.70;11.80;;;;;;;29.53;31.90;99930.91;5111440;28;20205;-55
2022/10/20 06:14:27;;;;;;;14.40;12.05;;;;;;;28.96;32.78;99937.53;5111310;28;20682;-56
2022/10/20 06:16:55;;;;;;;15.48;12.73;;;;;;;29.02;32.53;99939.56;5096198;28;20210;-56
2022/10/20 06:19:23;;;;;;;18.65;11.88;;;;;;;29.94;31.08;99956.09;5090161;28;20206;-56
2022/10/20 06:21:51;;;;;;;18.25;12.38;;;;;;;29.92;31.00;99942.03;5089630;28;20580;-55
2022/10/20 06:24:18;;;;;;;14.88;11.77;;;;;;;30.16;30.76;99948.56;5089758;28;20188;-55
2022/10/20 06:26:45;;;;;;;13.63;11.57;;;;;;;30.31;30.64;99953.16;5088538;28;20199;-60
2022/10/20 06:29:16;;;;;;;16.70;11.68;;;;;;;31.27;29.47;99950.97;5089409;28;20191;-60
2022/10/20 06:31:44;;;;;;;11.57;10.55;;;;;;;31.26;29.45;99960.06;5089324;28;20198;-61
2022/10/20 06:34:14;;;;;;;13.80;12.25;;;;;;;31.97;28.60;99971.97;5089455;28;20206;-61
2022/10/20 06:36:42;;;;;;;16.83;11.40;;;;;;;32.28;27.64;99961.38;5089228;28;20223;-61
2022/10/20 06:39:12;;;;;;;11.93;10.77;;;;;;;32.28;27.40;99978.28;5090323;28;20203;-61
2022/10/20 06:41:39;;;;;;;11.55;10.43;;;;;;;31.26;28.58;99975.31;5089617;28;20201;-60
2022/10/20 06:44:06;;;;;;;13.13;10.77;;;;;;;29.62;30.86;99971.91;5088929;28;20210;-62
2022/10/20 06:46:36;;;;;;;12.05;10.63;;;;;;;27.50;33.73;99974.63;5089107;28;20187;-61
2022/10/20 06:49:05;;;;;;;13.35;11.15;;;;;;;25.72;36.79;99969.94;5089379;28;20221;-60
2022/10/20 06:51:33;;;;;;;12.00;10.80;;;;;;;24.20;39.45;99964.53;5089570;28;25081;-60
2022/10/20 06:54:00;;;;;;;11.82;10.70;;;;;;;23.39;41.36;99961.03;5090014;28;20199;-60
2022/10/20 06:56:29;;;;;;;19.95;10.70;;;;;;;22.48;43.64;99962.41;5089844;28;20235;-55
2022/10/20 06:58:57;;;;;;;16.58;11.57;;;;;;;21.59;45.93;99967.66;5090143;28;20195;-60
2022/10/20 07:01:26;;;;;;;12.07;10.73;;;;;;;21.29;47.04;99962.63;5090083;28;20207;-60
2022/10/20 07:03:56;;;;;;;11.75;10.57;;;;;;;21.17;47.79;99963.38;5089924;28;20199;-60
2022/10/20 07:06:24;;;;;;;12.98;11.00;;;;;;;20.99;48.45;99966.25;5089813;28;20600;-60
2022/10/20 07:08:53;;;;;;;11.70;10.55;;;;;;;20.91;48.66;99968.56;5089827;28;20560;-59
2022/10/20 07:11:21;;;;;;;14.30;10.98;;;;;;;20.75;48.92;99961.72;5089489;28;20198;-60
2022/10/20 07:13:48;;;;;;;17.20;11.30;;;;;;;20.49;49.86;99955.47;5089838;28;20685;-60
2022/10/20 07:16:18;;;;;;;19.85;14.15;;;;;;;20.29;50.67;99954.03;5089506;28;20367;-60
2022/10/20 07:18:45;;;;;;;19.77;13.02;;;;;;;20.21;50.90;99958.91;5088704;28;20208;-60
2022/10/20 07:21:16;;;;;;;20.38;18.23;;;;;;;20.04;51.60;99956.47;5088674;28;20685;-60
2022/10/20 07:23:43;;;;;;;17.95;14.20;;;;;;;19.86;52.02;99958.44;5089371;28;20329;-60
2022/10/20 07:26:13;;;;;;;13.30;11.82;;;;;;;19.71;52.86;99959.34;5089727;28;20227;-59
2022/10/20 07:28:42;;;;;;;13.68;11.90;;;;;;;19.93;52.37;99957.13;5089217;28;20609;-59
2022/10/20 07:31:11;;;;;;;15.35;12.55;;;;;;;20.02;51.67;99961.81;5082826;28;20422;-60
2022/10/20 07:33:39;;;;;;;16.15;11.05;;;;;;;19.96;51.89;99964.84;5083910;28;20597;-59
2022/10/20 07:36:13;;;;;;;12.48;11.38;;;;;;;19.92;52.10;99961.53;5089201;28;20323;-60
2022/10/20 07:38:40;;;;;;;16.40;13.35;;;;;;;19.92;52.13;99963.31;5088618;28;20295;-60
2022/10/20 07:41:08;;;;;;;18.35;13.52;;;;;;;20.02;51.93;99966.25;5089556;28;20223;-60
2022/10/20 07:43:35;;;;;;;16.75;15.02;;;;;;;19.88;51.56;99965.28;5089020;28;20209;-55
2022/10/20 07:46:03;;;;;;;23.13;17.33;;;;;;;19.97;51.43;99957.78;5089329;28;20299;-54
2022/10/20 07:48:30;;;;;;;18.10;13.15;;;;;;;19.86;51.00;99964.53;5089176;28;20215;-55
2022/10/20 07:51:17;;;;;;;13.15;11.57;;;;;;;19.78;51.14;99950.13;5089172;28;20195;-56
2022/10/20 07:53:45;;;;;;;14.15;12.70;;;;;;;19.68;51.83;99956.88;5089435;28;20195;-55
2022/10/20 07:56:12;;;;;;;14.68;11.10;;;;;;;19.73;51.86;99955.69;5089278;28;20219;-55
2022/10/20 07:58:39;;;;;;;13.13;11.05;;;;;;;19.54;52.41;99955.91;5089260;28;20199;-55
2022/10/20 08:01:06;;;;;;;15.77;13.02;;;;;;;19.52;53.04;99967.47;5089059;28;20203;-60
2022/10/20 08:03:33;;;;;;;12.93;11.48;;;;;;;19.58;52.69;99965.31;5089043;28;20217;-60
2022/10/20 08:06:01;;;;;;;10.93;9.82;;;;;;;19.73;52.31;99979.38;5089237;28;20282;-60
2022/10/20 08:08:29;;;;;;;17.83;13.30;;;;;;;19.79;52.26;99972.91;5088779;28;20197;-60
2022/10/20 08:10:57;;;;;;;12.15;10.98;;;;;;;19.74;51.51;99967.06;5087818;28;20246;-56
2022/10/20 08:13:24;;;;;;;20.48;9.85;;;;;;;19.81;51.30;99960.47;5087695;28;20198;-54
2022/10/20 08:15:51;;;;;;;16.52;11.57;;;;;;;19.87;50.99;99963.59;5088742;28;20254;-55
2022/10/20 08:18:18;;;;;;;11.02;9.88;;;;;;;19.75;50.80;99964.31;5088281;28;20195;-54
2022/10/20 08:20:45;;;;;;;10.20;9.30;;;;;;;19.66;50.95;99958.75;5088681;28;20200;-54
2022/10/20 08:23:12;;;;;;;15.85;9.95;;;;;;;19.61;50.79;99961.69;5088939;28;20195;-55
2022/10/20 08:25:41;;;;;;;17.77;10.07;;;;;;;19.57;51.14;99961.00;5089195;28;20599;-55
2022/10/20 08:28:08;;;;;;;11.18;9.00;;;;;;;19.61;50.64;99950.28;5088920;28;20290;-55
2022/10/20 08:30:36;;;;;;;15.65;9.80;;;;;;;19.67;50.69;99956.03;5088665;28;20204;-55
2022/10/20 08:33:03;;;;;;;11.77;8.68;;;;;;;19.81;50.27;99952.59;5088911;28;20200;-55
2022/10/20 08:35:30;;;;;;;12.85;10.48;;;;;;;19.83;49.94;99951.56;5088730;28;20652;-55
2022/10/20 08:37:57;;;;;;;12.73;9.93;;;;;;;19.88;50.00;99953.91;5088893;28;20210;-54
2022/10/20 08:40:27;;;;;;;14.18;9.15;;;;;;;19.85;49.88;99949.69;5088601;28;20206;-60
2022/10/20 08:42:56;;;;;;;11.35;8.77;;;;;;;19.85;49.96;99948.84;5088502;28;20198;-61
2022/10/20 08:45:25;;;;;;;9.55;8.35;;;;;;;19.85;50.05;99939.16;5088689;28;20196;-61
2022/10/20 08:47:55;;;;;;;12.68;10.45;;;;;;;19.93;49.78;99947.44;5088850;28;20213;-61
2022/10/20 08:50:26;;;;;;;11.98;10.13;;;;;;;19.93;49.97;99946.59;5088840;28;20298;-60
2022/10/20 08:52:56;;;;;;;9.25;8.35;;;;;;;19.97;49.33;99942.84;5090831;28;20238;-60
2022/10/20 08:55:28;;;;;;;15.48;10.15;;;;;;;20.00;48.44;99947.03;5091153;28;20223;-60
2022/10/20 08:58:02;;;;;;;10.90;8.73;;;;;;;19.95;47.92;99952.59;5091452;28;20206;-60
2022/10/20 09:00:30;;;;;;;10.95;8.50;;;;;;;19.98;47.20;99955.03;5091248;28;20236;-60
2022/10/20 09:03:02;;;;;;;8.85;8.05;;;;;;;20.07;46.85;99954.50;5091447;28;20199;-60
2022/10/20 09:05:32;;;;;;;9.93;8.38;;;;;;;20.07;46.73;99954.50;5091185;28;20283;-60
2022/10/20 09:07:59;;;;;;;9.55;8.07;;;;;;;19.99;46.20;99940.94;5091307;28;20206;-60
2022/10/20 09:10:38;;;;;;;9.88;8.90;;;;;;;20.11;45.63;99950.72;5089646;28;20199;-60
2022/10/20 09:13:14;;;;;;;10.77;9.88;;;;;;;20.15;46.11;99954.03;5070657;28;20594;-60
2022/10/20 09:15:41;;;;;;;11.98;10.82;;;;;;;20.24;45.68;99951.66;5070890;28;20223;-60
2022/10/20 09:18:14;;;;;;;10.48;9.43;;;;;;;20.21;45.59;99946.56;5070829;28;20210;-60
2022/10/20 09:20:47;;;;;;;11.82;10.82;;;;;;;20.17;45.39;99941.59;5082665;28;20276;-60
2022/10/20 09:23:16;;;;;;;8.57;7.75;;;;;;;20.35;44.92;99947.50;5091803;28;20283;-60
2022/10/20 09:25:45;;;;;;;10.23;7.97;;;;;;;20.13;44.89;99916.38;5091628;28;20283;-60
2022/10/20 09:28:22;;;;;;;9.13;8.48;;;;;;;20.39;45.08;99954.34;5091761;28;20218;-59
2022/10/20 09:30:49;;;;;;;10.25;8.80;;;;;;;20.46;45.24;99940.66;5091603;28;20202;-60
2022/10/20 09:33:28;;;;;;;22.23;16.05;;;;;;;20.44;45.85;99945.19;5091759;28;20205;-60
2022/10/20 09:36:02;;;;;;;8.45;7.68;;;;;;;20.50;45.25;99947.44;5091471;28;20225;-60
2022/10/20 09:38:31;;;;;;;9.55;8.75;;;;;;;20.60;45.19;99948.56;5091492;28;20203;-60
2022/10/20 09:41:09;;;;;;;16.10;13.50;;;;;;;20.66;45.88;99944.69;5091647;28;20199;-56
2022/10/20 09:43:39;;;;;;;9.18;8.27;;;;;;;20.72;45.44;99946.94;5091326;28;20201;-55
2022/10/20 09:46:09;;;;;;;8.18;7.38;;;;;;;20.75;44.77;99946.75;5091269;28;20202;-54
2022/10/20 09:48:39;;;;;;;12.80;9.45;;;;;;;20.76;44.06;99943.19;5090322;28;20199;-55
2022/10/20 09:51:07;;;;;;;8.73;7.93;;;;;;;20.72;43.76;99946.94;5089960;28;20285;-55
2022/10/20 09:53:49;;;;;;;8.27;7.60;;;;;;;20.72;43.93;99938.19;5089786;28;20235;-55
2022/10/20 09:56:24;;;;;;;7.22;6.70;;;;;;;20.60;44.00;99945.06;5088212;28;20705;-55
2022/10/20 09:58:53;;;;;;;7.18;6.68;;;;;;;20.59;44.17;99935.47;5087434;28;20198;-55
2022/10/20 10:01:20;;;;;;;8.25;7.47;;;;;;;20.55;44.50;99942.72;5089695;28;20195;-56
2022/10/20 10:03:48;;;;;;;7.60;6.90;;;;;;;20.66;44.03;99942.03;5089672;28;20714;-55
2022/10/20 10:06:28;;;;;;;8.93;8.07;;;;;;;20.51;43.79;99901.69;5089412;28;20282;-55
2022/10/20 10:08:57;;;;;;;25.80;21.05;;;;;;;20.61;43.79;99928.31;5087875;28;20191;-61
2022/10/20 10:11:28;;;;;;;11.57;10.38;;;;;;;20.83;43.50;99948.88;5089359;28;20192;-59
2022/10/20 10:13:57;;;;;;;7.30;6.60;;;;;;;20.87;42.78;99934.56;5089560;28;20203;-54
2022/10/20 10:16:24;;;;;;;18.88;15.27;;;;;;;20.85;42.95;99942.56;5089219;28;20707;-55
2022/10/20 10:19:00;;;;;;;12.60;11.07;;;;;;;20.82;43.04;99926.09;5089333;28;20675;-55
2022/10/20 10:21:29;;;;;;;8.23;7.63;;;;;;;20.92;42.80;99938.59;5089326;28;20195;-55
2022/10/20 10:23:58;;;;;;;8.82;8.10;;;;;;;20.99;42.46;99929.31;5089176;28;20289;-54
2022/10/20 10:26:43;;;;;;;10.77;8.73;;;;;;;20.97;42.21;99931.22;5088907;28;20195;-60
2022/10/20 10:29:27;;;;;;;8.77;7.88;;;;;;;20.99;42.45;99918.75;5086814;28;20199;-60
2022/10/20 10:32:00;;;;;;;17.13;8.38;;;;;;;21.01;42.51;99922.16;5087148;28;20205;-60
2022/10/20 10:35:01;;;;;;;10.70;6.82;;;;;;;21.06;42.41;99913.09;5089019;28;20192;-61
2022/10/20 10:37:29;;;;;;;7.57;6.97;;;;;;;21.14;42.46;99916.91;5085591;28;20207;-60
2022/10/20 10:39:56;;;;;;;16.88;13.32;;;;;;;21.19;42.09;99914.03;5089210;28;20299;-60
2022/10/20 10:42:43;;;;;;;29.77;19.73;;;;;;;21.23;41.77;99920.75;5088847;28;20196;-60
2022/10/20 10:45:22;;;;;;;7.72;7.07;;;;;;;21.23;40.96;99916.34;5086449;28;20201;-61
2022/10/20 10:48:20;;;;;;;9.32;7.13;;;;;;;21.07;41.00;99915.63;5086345;28;20223;-61
2022/10/20 10:50:52;;;;;;;7.32;6.72;;;;;;;20.97;42.04;99904.00;5088657;28;20278;-60
2022/10/20 10:53:35;;;;;;;17.50;8.32;;;;;;;20.87;42.15;99893.19;5088298;28;20226;-60
2022/10/20 10:56:15;;;;;;;6.85;6.35;;;;;;;21.03;42.01;99901.78;5087937;28;20233;-60
2022/10/20 10:58:47;;;;;;;11.20;10.20;;;;;;;21.10;42.01;99898.75;5088104;28;20209;-60
2022/10/20 11:01:50;;;;;;;8.18;7.47;;;;;;;21.12;41.61;99894.19;5089928;28;20199;-60
2022/10/20 11:04:52;;;;;;;9.45;7.45;;;;;;;21.01;41.10;99884.34;5089715;28;20195;-61
2022/10/20 11:07:31;;;;;;;11.15;9.32;;;;;;;20.94;41.31;99868.09;5067482;28;20195;-59
2022/10/20 11:10:05;;;;;;;7.07;6.45;;;;;;;20.96;40.99;99889.94;5090026;28;20195;-59
2022/10/20 11:12:50;;;;;;;7.40;6.28;;;;;;;20.96;41.54;99883.81;5089095;28;20259;-60
2022/10/20 11:15:28;;;;;;;7.28;6.70;;;;;;;20.95;40.69;99882.97;5088901;28;20694;-59
2022/10/20 11:18:06;;;;;;;6.75;6.15;;;;;;;20.90;40.63;99879.78;5089662;28;20222;-54
2022/10/20 11:20:41;;;;;;;6.75;6.18;;;;;;;20.95;40.50;99884.78;5089391;28;20312;-60
2022/10/20 11:23:43;;;;;;;6.97;6.28;;;;;;;20.89;40.96;99870.16;5089385;28;20285;-59
2022/10/20 11:26:19;;;;;;;7.13;6.00;;;;;;;20.88;40.80;99871.13;5079110;28;20198;-60
2022/10/20 11:28:49;;;;;;;9.25;6.47;;;;;;;20.81;42.02;99872.47;5089694;28;20671;-54
2022/10/20 11:31:24;;;;;;;9.38;5.97;;;;;;;20.89;41.64;99861.41;5089425;28;20196;-60
2022/10/20 11:34:00;;;;;;;9.25;6.13;;;;;;;20.80;41.05;99854.94;5089433;28;20204;-60